Domov               UVHVVR             MKGP            O straneh              
ZDRAVSTVENO VARSTVO RASTLIN
  MREŽA AGROMET. POSTAJ
 ► PROGNOSTIČNA OBVESTILA
AGROMETEOROLOŠKI PODATKI -
ARSO
OBVLADOVANJE TVEGANJ ZARADI
NEUGODNIH VREMENSKIH RAZMER
  ► NARAVNE NESREČE
  ► SUŠA/MOČA
  ► NAMAKANJE
  ► ŽLED (gozdarstvo)
KARTOGRAFSKI PRIKAZI
SPLETNE POVEZAVE
PROJEKTI IN PUBLIKACIJE

AGROMETEOROLOŠKA MREŽA: VREMENSKE POSTAJE IN FENOLOŠKA OPAZOVANJA

Pregled podatkov za lokacijo Zgornja Velka, meteorološka postaja 24378

Pregled senzorjev na lokaciji

ID Ime Zadnja
vrednost
Datum
zadnje
spremembe
Tip
senzorja
895 Omočenost lista (U) 10 U 23.7.2018 05:30 A730WET
898 Padavine (mm) 2,4 mm 23.7.2018 05:30 Generic 0.2 mm
897 Relativna vlaga 2 m (% RH) 97,02 % RH 23.7.2018 05:30 Generic 0 - 100 %
896 Temperatura 2 m (°C) 15,51 °C 23.7.2018 05:30 Generic -40 - +60 °C

Pregled podatkov zadnjih 24 ur

Zap.
št.
Datum in čas Zgornja Velka
Omočenost
lista
Padavine Relativna
vlaga
2
m
Temperatura
2
m
1 23.7.2018 05:30
2 23.7.2018 05:00
3 23.7.2018 04:30 10 2,4 97 15,5
4 23.7.2018 04:00 10 3,8 96,6 15,5
5 23.7.2018 03:30 10 4 95,8 15,8
6 23.7.2018 03:00 10 1 93 16,5
7 23.7.2018 02:30 9 0 85,9 17,1
8 23.7.2018 02:00 5 0 90,9 17,2
9 23.7.2018 01:30 0 0 87,5 17,1
10 23.7.2018 01:00 10 0,2 83,2 17,5
11 23.7.2018 00:30 10 0 80,5 17,8
12 23.7.2018 00:00 0 0 78,4 18,2
13 22.7.2018 23:30 8 0 79,8 18
14 22.7.2018 23:00 5 0 86,4 17,8
15 22.7.2018 22:30 1 0 95,1 18,1
16 22.7.2018 22:00 2 0 94,7 18,1
17 22.7.2018 21:30 1 0 94,1 18,2
18 22.7.2018 21:00 1 0 93,5 18,3
19 22.7.2018 20:30 1 0 92,8 18,5
20 22.7.2018 20:00 0 0 92,1 18,8
21 22.7.2018 19:30 0 0 91 19,2
22 22.7.2018 19:00 0 0 88,9 20
23 22.7.2018 18:30 0 0 86,7 20
24 22.7.2018 18:00 0 0 88,1 20
25 22.7.2018 17:30 0 0 87,9 20,4
26 22.7.2018 17:00 10 0,2 85,4 20,7
27 22.7.2018 16:30 10 0,4 88,3 20,5
28 22.7.2018 16:00 2 0 76,6 21,9
29 22.7.2018 15:30 0 0 64,6 23,2
30 22.7.2018 15:00 0 0 65,1 23,6
31 22.7.2018 14:30 0 0 58,5 25,1
32 22.7.2018 14:00 0 0 59,7 24,2
33 22.7.2018 13:30 0 0 61,4 25,2
34 22.7.2018 13:00 0 0 60,6 24,2
35 22.7.2018 12:30 0 0 54 24,9
36 22.7.2018 12:00 0 0 53,7 26,4
37 22.7.2018 11:30 0 0 46,5 26,2
38 22.7.2018 11:00 0 0 54,1 25,1
39 22.7.2018 10:30 0 0 58,1 24,8
40 22.7.2018 10:00 0 0 57,6 24,2
41 22.7.2018 09:30 0 0 62,3 24
42 22.7.2018 09:00 0 0 67,1 23,2
43 22.7.2018 08:30 0 0 68 22,8
44 22.7.2018 08:00 0 0 72,6 21,3
45 22.7.2018 07:30 3 0 84,2 19,5
46 22.7.2018 07:00 10 0 90,4 18,4
47 22.7.2018 06:30 10 0 94,6 17,6
48 22.7.2018 06:00 10 0 95,8 17,2
© 2011 Ministrstvo za kmetijstvo, gozdarstvo in prehrano. Vse pravice pridržane.